createdAt,value
2023-05-01T00:04:39.289Z,99.90
2023-05-01T00:09:44.650Z,99.90
2023-05-01T00:14:49.785Z,99.90
2023-05-01T00:19:55.759Z,99.90
2023-05-01T00:25:01.659Z,99.90
2023-05-01T00:30:07.598Z,99.90
2023-05-01T00:35:13.751Z,99.90
2023-05-01T00:40:19.045Z,99.90
2023-05-01T00:45:24.167Z,99.90
2023-05-01T00:50:30.134Z,99.90
2023-05-01T00:55:36.024Z,99.90
2023-05-01T01:00:41.602Z,99.90
2023-05-01T01:06:08.093Z,99.90
2023-05-01T01:11:21.984Z,99.90
2023-05-01T01:16:49.373Z,99.90
2023-05-01T01:21:57.584Z,99.90
2023-05-01T01:27:31.422Z,99.90
2023-05-01T01:32:54.810Z,99.90
2023-05-01T01:38:05.929Z,99.90
2023-05-01T01:43:14.005Z,99.90
2023-05-01T01:48:22.439Z,99.90
2023-05-01T01:53:30.472Z,99.90
2023-05-01T01:58:37.801Z,99.90
2023-05-01T02:03:45.070Z,99.90
2023-05-01T02:08:51.178Z,99.90
2023-05-01T02:13:58.512Z,99.90
2023-05-01T02:19:06.320Z,99.90
2023-05-01T02:24:13.731Z,99.90
2023-05-01T02:29:19.125Z,99.90
2023-05-01T02:34:24.187Z,99.90
2023-05-01T02:39:29.329Z,99.90
2023-05-01T02:44:43.203Z,99.90
2023-05-01T02:49:49.704Z,99.90
2023-05-01T02:54:56.052Z,99.90
2023-05-01T03:00:01.395Z,99.90
2023-05-01T03:05:07.039Z,99.90
2023-05-01T03:10:12.902Z,99.90
2023-05-01T03:15:18.688Z,99.90
2023-05-01T03:20:25.841Z,99.90
2023-05-01T03:25:31.220Z,99.90
2023-05-01T03:30:37.166Z,99.90
2023-05-01T03:35:42.255Z,99.90
2023-05-01T03:40:47.959Z,99.90
2023-05-01T03:45:54.391Z,99.90
2023-05-01T03:50:59.586Z,99.90
2023-05-01T03:56:05.006Z,99.90
2023-05-01T04:01:10.243Z,99.90
2023-05-01T04:06:17.171Z,99.90
2023-05-01T04:11:22.473Z,99.90
2023-05-01T04:16:27.851Z,99.90
2023-05-01T04:21:33.118Z,99.90
2023-05-01T04:26:39.142Z,99.90
2023-05-01T04:31:45.333Z,99.90
2023-05-01T04:36:51.996Z,99.90
2023-05-01T04:41:57.141Z,99.90
2023-05-01T04:47:06.553Z,99.90
2023-05-01T04:52:12.794Z,99.90
2023-05-01T04:57:17.980Z,99.90
2023-05-01T05:02:23.298Z,99.90
2023-05-01T05:07:28.680Z,99.90
2023-05-01T05:12:33.934Z,99.90
2023-05-01T05:17:39.067Z,99.90
2023-05-01T05:22:44.275Z,99.90
2023-05-01T05:27:49.365Z,99.90
2023-05-01T05:32:55.164Z,99.90
2023-05-01T05:38:00.469Z,99.90
2023-05-01T05:43:05.993Z,99.90
2023-05-01T05:48:12.867Z,99.90
2023-05-01T05:53:18.489Z,99.90
2023-05-01T05:58:25.014Z,99.90
2023-05-01T06:03:30.418Z,99.90
2023-05-01T06:08:38.168Z,99.90
2023-05-01T06:13:43.321Z,99.90
2023-05-01T06:18:48.497Z,99.90
2023-05-01T06:23:53.925Z,99.90
2023-05-01T06:28:59.142Z,99.90
2023-05-01T06:34:04.964Z,99.90
2023-05-01T06:39:10.183Z,99.30
2023-05-01T06:44:15.454Z,96.20
2023-05-01T06:49:20.683Z,96.30
2023-05-01T06:54:26.677Z,96.30
2023-05-01T06:59:31.841Z,94.30
2023-05-01T07:04:37.061Z,92.00
2023-05-01T07:09:42.929Z,91.30
2023-05-01T07:14:48.054Z,91.50
2023-05-01T07:19:53.356Z,88.90
2023-05-01T07:24:58.471Z,83.00
2023-05-01T07:30:05.337Z,79.50
2023-05-01T07:35:11.048Z,75.70
2023-05-01T07:40:16.269Z,72.20
2023-05-01T07:45:21.588Z,70.90
2023-05-01T07:50:26.958Z,67.40
2023-05-01T07:55:32.217Z,66.10
2023-05-01T08:00:37.642Z,60.70
2023-05-01T08:05:43.567Z,61.10
2023-05-01T08:10:49.512Z,57.20
2023-05-01T08:15:54.692Z,56.60
2023-05-01T08:21:00.031Z,56.00
2023-05-01T08:26:05.676Z,54.10
2023-05-01T08:31:11.019Z,56.10
2023-05-01T08:36:16.403Z,53.10
2023-05-01T08:41:23.965Z,51.80
2023-05-01T08:47:08.382Z,56.40
2023-05-01T08:52:15.088Z,51.70
2023-05-01T08:57:21.758Z,48.50
2023-05-01T09:02:28.980Z,50.50
2023-05-01T09:07:34.298Z,46.40
2023-05-01T09:12:41.491Z,47.10
2023-05-01T09:17:47.237Z,48.60
2023-05-01T09:22:52.609Z,43.00
2023-05-01T09:27:58.378Z,44.70
2023-05-01T09:33:15.062Z,44.20
2023-05-01T09:38:25.716Z,44.90
2023-05-01T09:43:31.970Z,44.70
2023-05-01T09:48:38.192Z,41.50
2023-05-01T09:53:43.337Z,40.90
2023-05-01T09:58:49.610Z,40.00
2023-05-01T10:03:58.057Z,40.90
2023-05-01T10:09:04.773Z,41.60
2023-05-01T10:14:11.560Z,42.00
2023-05-01T10:19:19.049Z,40.80
2023-05-01T10:24:24.275Z,41.80
2023-05-01T10:29:32.850Z,39.80
2023-05-01T10:34:41.005Z,39.30
2023-05-01T10:39:46.904Z,43.60
2023-05-01T10:44:52.143Z,41.20
2023-05-01T10:50:16.255Z,38.90
2023-05-01T10:55:43.022Z,42.40
2023-05-01T11:00:51.153Z,39.30
2023-05-01T11:06:05.487Z,38.90
2023-05-01T11:11:28.911Z,38.50
2023-05-01T11:16:47.035Z,41.00
2023-05-01T11:21:52.699Z,40.80
2023-05-01T11:27:00.246Z,40.40
2023-05-01T11:32:14.939Z,41.20
2023-05-01T11:37:21.374Z,37.90
2023-05-01T11:42:27.094Z,38.60
2023-05-01T11:47:34.393Z,43.00
2023-05-01T11:52:49.745Z,42.50
2023-05-01T11:57:55.248Z,41.80
2023-05-01T12:03:09.427Z,42.60
2023-05-01T12:08:19.638Z,40.70
2023-05-01T12:13:27.229Z,38.80
2023-05-01T12:18:32.537Z,42.00
2023-05-01T12:23:46.921Z,41.40
2023-05-01T12:29:03.589Z,40.40
2023-05-01T12:34:09.222Z,39.20
2023-05-01T12:39:14.678Z,41.90
2023-05-01T12:44:25.777Z,39.70
2023-05-01T12:49:32.840Z,41.40
2023-05-01T12:54:42.126Z,43.10
2023-05-01T12:59:49.824Z,40.60
2023-05-01T13:04:56.508Z,39.70
2023-05-01T13:10:02.348Z,40.50
2023-05-01T13:15:09.026Z,39.10
2023-05-01T13:20:15.616Z,37.20
2023-05-01T13:25:21.788Z,41.40
2023-05-01T13:30:35.161Z,41.80
2023-05-01T13:35:41.072Z,42.40
2023-05-01T13:40:46.256Z,40.70
2023-05-01T13:45:52.530Z,41.40
2023-05-01T13:50:57.640Z,43.10
2023-05-01T13:56:06.261Z,42.30
2023-05-01T14:01:17.508Z,41.40
2023-05-01T14:06:24.463Z,41.80
2023-05-01T14:11:29.841Z,40.30
2023-05-01T14:16:35.188Z,40.40
2023-05-01T14:21:42.927Z,41.30
2023-05-01T14:26:50.430Z,41.30
2023-05-01T14:31:57.046Z,41.00
2023-05-01T14:37:02.572Z,42.60
2023-05-01T14:42:07.694Z,44.10
2023-05-01T14:47:16.784Z,44.50
2023-05-01T14:52:22.573Z,42.90
2023-05-01T14:57:29.123Z,44.20
2023-05-01T15:02:34.686Z,43.70
2023-05-01T15:07:39.969Z,44.80
2023-05-01T15:12:45.724Z,43.60
2023-05-01T15:17:51.138Z,43.40
2023-05-01T15:22:56.373Z,44.20
2023-05-01T15:28:01.606Z,43.00
2023-05-01T15:33:07.482Z,44.30
2023-05-01T15:38:13.419Z,45.60
2023-05-01T15:43:18.606Z,44.70
2023-05-01T15:48:24.104Z,45.80
2023-05-01T15:53:29.243Z,44.60
2023-05-01T15:58:34.483Z,46.70
2023-05-01T16:03:42.813Z,44.10
2023-05-01T16:08:48.577Z,45.80
2023-05-01T16:13:55.365Z,47.10
2023-05-01T16:19:01.443Z,46.60
2023-05-01T16:24:07.204Z,46.80
2023-05-01T16:29:12.637Z,47.00
2023-05-01T16:34:21.021Z,47.30
2023-05-01T16:39:26.894Z,48.60
2023-05-01T16:44:32.386Z,48.30
2023-05-01T16:49:39.114Z,48.90
2023-05-01T16:54:44.323Z,48.80
2023-05-01T16:59:49.389Z,50.60
2023-05-01T17:04:54.539Z,50.50
2023-05-01T17:09:59.902Z,50.50
2023-05-01T17:15:06.416Z,51.10
2023-05-01T17:20:12.397Z,51.00
2023-05-01T17:25:17.658Z,51.60
2023-05-01T17:30:22.917Z,52.40
2023-05-01T17:35:28.220Z,53.10
2023-05-01T17:40:34.044Z,53.60
2023-05-01T17:45:39.801Z,54.20
2023-05-01T17:50:45.083Z,55.20
2023-05-01T17:55:50.252Z,55.70
2023-05-01T18:00:58.275Z,56.50
2023-05-01T18:06:05.004Z,57.40
2023-05-01T18:11:10.128Z,58.00
2023-05-01T18:16:16.903Z,59.10
2023-05-01T18:21:21.981Z,60.40
2023-05-01T18:26:27.718Z,61.20
2023-05-01T18:31:34.214Z,62.00
2023-05-01T18:36:39.476Z,63.20
2023-05-01T18:41:45.107Z,65.50
2023-05-01T18:46:50.433Z,65.60
2023-05-01T18:51:55.836Z,66.50
2023-05-01T18:57:01.726Z,67.90
2023-05-01T19:02:07.374Z,68.60
2023-05-01T19:07:12.500Z,68.80
2023-05-01T19:12:17.694Z,69.70
2023-05-01T19:17:22.915Z,70.00
2023-05-01T19:22:28.154Z,70.30
2023-05-01T19:27:33.215Z,70.30
2023-05-01T19:32:38.564Z,70.50
2023-05-01T19:37:43.710Z,70.90
2023-05-01T19:42:49.103Z,70.60
2023-05-01T19:47:54.356Z,71.00
2023-05-01T19:53:02.657Z,71.50
2023-05-01T19:58:07.747Z,71.80
2023-05-01T20:03:13.237Z,72.00
2023-05-01T20:08:18.513Z,73.20
2023-05-01T20:13:24.231Z,73.80
2023-05-01T20:18:29.520Z,74.00
2023-05-01T20:23:36.009Z,74.10
2023-05-01T20:28:41.202Z,74.80
2023-05-01T20:33:46.748Z,75.10
2023-05-01T20:38:53.344Z,75.60
2023-05-01T20:43:59.368Z,76.40
2023-05-01T20:49:06.049Z,77.30
2023-05-01T20:54:11.373Z,78.70
2023-05-01T20:59:16.693Z,79.80
2023-05-01T21:04:21.906Z,80.70
2023-05-01T21:09:27.526Z,81.70
2023-05-01T21:14:32.587Z,82.50
2023-05-01T21:19:48.485Z,83.10
2023-05-01T21:24:55.998Z,83.30
2023-05-01T21:30:03.289Z,83.80
2023-05-01T21:35:11.064Z,83.50
2023-05-01T21:40:19.342Z,83.90
2023-05-01T21:45:26.633Z,84.00
2023-05-01T21:50:34.759Z,85.00
2023-05-01T21:55:40.549Z,85.00
2023-05-01T22:00:47.294Z,85.50
2023-05-01T22:05:53.302Z,86.40
2023-05-01T22:10:58.476Z,87.10
2023-05-01T22:16:04.257Z,88.20
2023-05-01T22:21:09.546Z,88.40
2023-05-01T22:26:14.700Z,89.50
2023-05-01T22:31:19.941Z,90.00
2023-05-01T22:36:25.092Z,89.70
2023-05-01T22:41:30.330Z,90.00
2023-05-01T22:46:36.020Z,89.40
2023-05-01T22:51:41.235Z,88.90
2023-05-01T22:56:46.468Z,89.40
2023-05-01T23:01:51.685Z,89.70
2023-05-01T23:06:57.444Z,89.50
2023-05-01T23:12:04.382Z,89.10
2023-05-01T23:17:09.451Z,89.60
2023-05-01T23:22:14.621Z,89.20
2023-05-01T23:27:22.063Z,88.90
2023-05-01T23:32:30.563Z,88.70
2023-05-01T23:37:35.792Z,88.50
2023-05-01T23:42:41.477Z,88.50
2023-05-01T23:47:46.947Z,88.00
2023-05-01T23:52:52.607Z,87.70
2023-05-01T23:57:59.181Z,87.30
